sensor_id;sensor_type;location;lat;lon;timestamp;pressure;altitude;pressure_sealevel;temperature;humidity
43312;BME280;30041;48.300;16.352;2022-08-18T00:02:22;99167.09;;;25.19;48.53
43312;BME280;30041;48.300;16.352;2022-08-18T00:04:48;99156.25;;;25.19;48.63
43312;BME280;30041;48.300;16.352;2022-08-18T00:07:21;99158.69;;;25.21;48.46
43312;BME280;30041;48.300;16.352;2022-08-18T00:09:47;99150.56;;;25.21;48.48
43312;BME280;30041;48.300;16.352;2022-08-18T00:12:22;99154.88;;;25.22;48.27
43312;BME280;30041;48.300;16.352;2022-08-18T00:14:49;99152.16;;;25.22;48.45
43312;BME280;30041;48.300;16.352;2022-08-18T00:17:17;99152.44;;;25.20;48.64
43312;BME280;30041;48.300;16.352;2022-08-18T00:19:42;99162.22;;;25.21;48.45
43312;BME280;30041;48.300;16.352;2022-08-18T00:22:10;99167.63;;;25.21;48.41
43312;BME280;30041;48.300;16.352;2022-08-18T00:24:36;99167.63;;;25.21;48.57
43312;BME280;30041;48.300;16.352;2022-08-18T00:27:04;99169.53;;;25.21;48.44
43312;BME280;30041;48.300;16.352;2022-08-18T00:29:30;99161.41;;;25.21;48.37
43312;BME280;30041;48.300;16.352;2022-08-18T00:31:56;99161.41;;;25.21;48.49
43312;BME280;30041;48.300;16.352;2022-08-18T00:34:22;99179.03;;;25.23;48.49
43312;BME280;30041;48.300;16.352;2022-08-18T00:36:48;99172.25;;;25.21;48.42
43312;BME280;30041;48.300;16.352;2022-08-18T00:39:33;99177.69;;;25.21;48.54
43312;BME280;30041;48.300;16.352;2022-08-18T00:42:10;99172.25;;;25.21;48.39
43312;BME280;30041;48.300;16.352;2022-08-18T00:44:36;99173.31;;;25.20;48.35
43312;BME280;30041;48.300;16.352;2022-08-18T00:47:02;99176.59;;;25.22;48.58
43312;BME280;30041;48.300;16.352;2022-08-18T00:49:30;99178.50;;;25.21;48.64
43312;BME280;30041;48.300;16.352;2022-08-18T00:51:57;99173.06;;;25.21;48.50
43312;BME280;30041;48.300;16.352;2022-08-18T00:54:28;99168.44;;;25.22;48.29
43312;BME280;30041;48.300;16.352;2022-08-18T00:56:59;99182.81;;;25.22;48.43
43312;BME280;30041;48.300;16.352;2022-08-18T00:59:48;99175.50;;;25.23;48.41
43312;BME280;30041;48.300;16.352;2022-08-18T01:02:29;99171.41;;;25.20;48.52
43312;BME280;30041;48.300;16.352;2022-08-18T01:05:05;99185.53;;;25.22;48.44
43312;BME280;30041;48.300;16.352;2022-08-18T01:07:37;99185.53;;;25.22;48.46
43312;BME280;30041;48.300;16.352;2022-08-18T01:10:09;99191.25;;;25.21;48.39
43312;BME280;30041;48.300;16.352;2022-08-18T01:12:35;99187.69;;;25.20;48.51
43312;BME280;30041;48.300;16.352;2022-08-18T01:15:01;99187.69;;;25.20;48.54
43312;BME280;30041;48.300;16.352;2022-08-18T01:17:27;99193.13;;;25.20;48.44
43312;BME280;30041;48.300;16.352;2022-08-18T01:19:53;99190.69;;;25.19;48.76
43312;BME280;30041;48.300;16.352;2022-08-18T01:25:09;99191.25;;;25.21;48.49
43312;BME280;30041;48.300;16.352;2022-08-18T01:27:35;99194.75;;;25.21;48.51
43312;BME280;30041;48.300;16.352;2022-08-18T01:30:05;99190.13;;;25.22;48.56
43312;BME280;30041;48.300;16.352;2022-08-18T01:32:31;99191.50;;;25.19;48.65
43312;BME280;30041;48.300;16.352;2022-08-18T01:35:01;99190.41;;;25.20;48.49
43312;BME280;30041;48.300;16.352;2022-08-18T01:37:28;99189.03;;;25.18;48.45
43312;BME280;30041;48.300;16.352;2022-08-18T01:39:54;99191.50;;;25.19;48.66
43312;BME280;30041;48.300;16.352;2022-08-18T01:42:20;99182.28;;;25.20;48.55
43312;BME280;30041;48.300;16.352;2022-08-18T01:44:47;99185.50;;;25.17;48.81
43312;BME280;30041;48.300;16.352;2022-08-18T01:47:14;99181.19;;;25.21;48.30
43312;BME280;30041;48.300;16.352;2022-08-18T01:49:40;99183.09;;;25.21;48.71
43312;BME280;30041;48.300;16.352;2022-08-18T01:52:06;99181.47;;;25.20;48.36
43312;BME280;30041;48.300;16.352;2022-08-18T01:54:32;99174.44;;;25.19;48.49
43312;BME280;30041;48.300;16.352;2022-08-18T01:57:07;99174.44;;;25.19;48.67
43312;BME280;30041;48.300;16.352;2022-08-18T01:59:33;99175.22;;;25.19;48.75
43312;BME280;30041;48.300;16.352;2022-08-18T02:01:59;99168.44;;;25.17;48.97
43312;BME280;30041;48.300;16.352;2022-08-18T02:04:28;99166.53;;;25.17;48.83
43312;BME280;30041;48.300;16.352;2022-08-18T02:07:00;99160.56;;;25.20;48.62
43312;BME280;30041;48.300;16.352;2022-08-18T02:09:27;99158.16;;;25.19;48.82
43312;BME280;30041;48.300;16.352;2022-08-18T02:11:52;99153.28;;;25.21;48.70
43312;BME280;30041;48.300;16.352;2022-08-18T02:14:19;99141.59;;;25.20;48.58
43312;BME280;30041;48.300;16.352;2022-08-18T02:16:46;99135.09;;;25.21;48.79
43312;BME280;30041;48.300;16.352;2022-08-18T02:19:12;99136.47;;;25.19;48.72
43312;BME280;30041;48.300;16.352;2022-08-18T02:21:38;99139.41;;;25.22;48.61
43312;BME280;30041;48.300;16.352;2022-08-18T02:24:04;99140.53;;;25.21;48.61
43312;BME280;30041;48.300;16.352;2022-08-18T02:26:30;99141.31;;;25.22;48.50
43312;BME280;30041;48.300;16.352;2022-08-18T02:28:58;99135.91;;;25.22;48.43
43312;BME280;30041;48.300;16.352;2022-08-18T02:31:25;99139.72;;;25.21;48.44
43312;BME280;30041;48.300;16.352;2022-08-18T02:33:51;99141.88;;;25.19;48.71
43312;BME280;30041;48.300;16.352;2022-08-18T02:36:17;99146.75;;;25.17;48.63
43312;BME280;30041;48.300;16.352;2022-08-18T02:38:44;99146.44;;;25.18;48.57
43312;BME280;30041;48.300;16.352;2022-08-18T02:41:11;99146.22;;;25.20;48.62
43312;BME280;30041;48.300;16.352;2022-08-18T02:43:39;99137.00;;;25.21;48.48
43312;BME280;30041;48.300;16.352;2022-08-18T02:46:05;99147.84;;;25.21;48.46
43312;BME280;30041;48.300;16.352;2022-08-18T02:48:32;99146.75;;;25.22;48.52
43312;BME280;30041;48.300;16.352;2022-08-18T02:51:07;99135.38;;;25.20;48.71
43312;BME280;30041;48.300;16.352;2022-08-18T02:53:33;99139.19;;;25.19;48.58
43312;BME280;30041;48.300;16.352;2022-08-18T02:56:14;99136.47;;;25.19;48.72
43312;BME280;30041;48.300;16.352;2022-08-18T02:58:43;99136.47;;;25.19;48.50
43312;BME280;30041;48.300;16.352;2022-08-18T03:01:09;99141.03;;;25.18;48.53
43312;BME280;30041;48.300;16.352;2022-08-18T03:03:34;99139.97;;;25.19;48.67
43312;BME280;30041;48.300;16.352;2022-08-18T03:06:00;99140.22;;;25.18;48.94
43312;BME280;30041;48.300;16.352;2022-08-18T03:08:29;99139.19;;;25.19;48.47
43312;BME280;30041;48.300;16.352;2022-08-18T03:10:57;99135.59;;;25.18;48.86
43312;BME280;30041;48.300;16.352;2022-08-18T03:13:23;99134.78;;;25.18;48.86
43312;BME280;30041;48.300;16.352;2022-08-18T03:15:49;99133.44;;;25.20;48.49
43312;BME280;30041;48.300;16.352;2022-08-18T03:18:14;99134.78;;;25.18;48.76
43312;BME280;30041;48.300;16.352;2022-08-18T03:20:40;99136.47;;;25.19;48.59
43312;BME280;30041;48.300;16.352;2022-08-18T03:23:09;99134.78;;;25.18;48.71
43312;BME280;30041;48.300;16.352;2022-08-18T03:25:34;99132.66;;;25.20;48.56
43312;BME280;30041;48.300;16.352;2022-08-18T03:28:03;99121.00;;;25.19;48.63
43312;BME280;30041;48.300;16.352;2022-08-18T03:30:29;99126.66;;;25.18;48.76
43312;BME280;30041;48.300;16.352;2022-08-18T03:32:57;99134.28;;;25.21;48.57
43312;BME280;30041;48.300;16.352;2022-08-18T03:35:22;99131.56;;;25.21;48.65
43312;BME280;30041;48.300;16.352;2022-08-18T03:37:51;99136.69;;;25.17;48.68
43312;BME280;30041;48.300;16.352;2022-08-18T03:40:16;99134.00;;;25.17;48.66
43312;BME280;30041;48.300;16.352;2022-08-18T03:42:42;99133.75;;;25.19;48.76
43312;BME280;30041;48.300;16.352;2022-08-18T03:45:08;99136.16;;;25.20;48.79
43312;BME280;30041;48.300;16.352;2022-08-18T03:47:34;99131.28;;;25.17;48.64
43312;BME280;30041;48.300;16.352;2022-08-18T03:50:00;99134.00;;;25.17;48.80
43312;BME280;30041;48.300;16.352;2022-08-18T03:52:25;99127.47;;;25.18;48.87
43312;BME280;30041;48.300;16.352;2022-08-18T03:54:51;99124.25;;;25.16;48.89
43312;BME280;30041;48.300;16.352;2022-08-18T03:57:17;99123.13;;;25.17;48.73
43312;BME280;30041;48.300;16.352;2022-08-18T03:59:42;99118.81;;;25.16;48.86
43312;BME280;30041;48.300;16.352;2022-08-18T04:02:09;99122.34;;;25.17;48.83
43312;BME280;30041;48.300;16.352;2022-08-18T04:04:36;99126.94;;;25.16;48.61
43312;BME280;30041;48.300;16.352;2022-08-18T04:07:11;99122.34;;;25.17;48.80
43312;BME280;30041;48.300;16.352;2022-08-18T04:09:39;99134.25;;;25.16;48.86
43312;BME280;30041;48.300;16.352;2022-08-18T04:12:08;99143.50;;;25.20;48.66
43312;BME280;30041;48.300;16.352;2022-08-18T04:14:37;99137.28;;;25.19;48.78
43312;BME280;30041;48.300;16.352;2022-08-18T04:17:04;99143.50;;;25.20;48.84
43312;BME280;30041;48.300;16.352;2022-08-18T04:19:29;99147.00;;;25.15;48.71
43312;BME280;30041;48.300;16.352;2022-08-18T04:22:00;99142.94;;;25.18;48.88
43312;BME280;30041;48.300;16.352;2022-08-18T04:24:30;99144.59;;;25.19;48.53
43312;BME280;30041;48.300;16.352;2022-08-18T04:27:01;99153.53;;;25.19;48.52
43312;BME280;30041;48.300;16.352;2022-08-18T04:29:28;99153.78;;;25.18;48.51
43312;BME280;30041;48.300;16.352;2022-08-18T04:31:53;99157.28;;;25.18;48.80
43312;BME280;30041;48.300;16.352;2022-08-18T04:34:21;99152.97;;;25.17;48.70
43312;BME280;30041;48.300;16.352;2022-08-18T04:36:47;99150.03;;;25.19;48.73
43312;BME280;30041;48.300;16.352;2022-08-18T04:39:13;99144.84;;;25.17;48.66
43312;BME280;30041;48.300;16.352;2022-08-18T04:41:43;99158.66;;;25.16;48.73
43312;BME280;30041;48.300;16.352;2022-08-18T04:44:11;99155.94;;;25.16;48.88
43312;BME280;30041;48.300;16.352;2022-08-18T04:46:40;99161.66;;;25.09;48.66
43312;BME280;30041;48.300;16.352;2022-08-18T04:49:09;99177.38;;;24.86;48.63
43312;BME280;30041;48.300;16.352;2022-08-18T04:51:40;99178.72;;;24.74;48.23
43312;BME280;30041;48.300;16.352;2022-08-18T04:54:06;99180.38;;;24.80;48.62
43312;BME280;30041;48.300;16.352;2022-08-18T04:56:37;99181.72;;;24.77;48.38
43312;BME280;30041;48.300;16.352;2022-08-18T04:59:06;99177.13;;;24.68;48.61
43312;BME280;30041;48.300;16.352;2022-08-18T05:01:35;99177.94;;;24.68;48.75
43312;BME280;30041;48.300;16.352;2022-08-18T05:04:01;99182.81;;;24.66;48.25
43312;BME280;30041;48.300;16.352;2022-08-18T05:06:27;99182.00;;;24.65;48.36
43312;BME280;30041;48.300;16.352;2022-08-18T05:08:55;99187.41;;;24.65;48.22
43312;BME280;30041;48.300;16.352;2022-08-18T05:11:23;99189.88;;;24.67;48.36
43312;BME280;30041;48.300;16.352;2022-08-18T05:13:50;99191.47;;;24.63;48.71
43312;BME280;30041;48.300;16.352;2022-08-18T05:16:15;99193.63;;;24.56;48.86
43312;BME280;30041;48.300;16.352;2022-08-18T05:18:41;99192.81;;;24.55;48.62
43312;BME280;30041;48.300;16.352;2022-08-18T05:21:10;99195.00;;;24.58;48.67
43312;BME280;30041;48.300;16.352;2022-08-18T05:23:40;99196.91;;;24.68;48.83
43312;BME280;30041;48.300;16.352;2022-08-18T05:26:05;99206.94;;;24.73;48.48
43312;BME280;30041;48.300;16.352;2022-08-18T05:28:32;99207.72;;;24.73;48.46
43312;BME280;30041;48.300;16.352;2022-08-18T05:30:57;99207.19;;;24.66;48.72
43312;BME280;30041;48.300;16.352;2022-08-18T05:33:24;99204.75;;;24.64;48.76
43312;BME280;30041;48.300;16.352;2022-08-18T05:35:54;99213.16;;;24.68;48.27
43312;BME280;30041;48.300;16.352;2022-08-18T05:41:12;99220.47;;;24.68;48.46
43312;BME280;30041;48.300;16.352;2022-08-18T05:43:41;99219.66;;;24.72;48.80
43312;BME280;30041;48.300;16.352;2022-08-18T05:46:08;99218.88;;;24.72;48.48
43312;BME280;30041;48.300;16.352;2022-08-18T05:48:38;99208.28;;;24.70;48.68
43312;BME280;30041;48.300;16.352;2022-08-18T05:51:15;99212.91;;;24.75;48.79
43312;BME280;30041;48.300;16.352;2022-08-18T05:53:42;99215.59;;;24.80;48.68
43312;BME280;30041;48.300;16.352;2022-08-18T05:56:10;99205.03;;;24.73;49.00
43312;BME280;30041;48.300;16.352;2022-08-18T05:58:52;99211.00;;;24.70;48.81
43312;BME280;30041;48.300;16.352;2022-08-18T06:01:24;99206.94;;;24.68;48.97
43312;BME280;30041;48.300;16.352;2022-08-18T06:06:23;99202.06;;;24.70;49.09
43312;BME280;30041;48.300;16.352;2022-08-18T06:11:27;99206.41;;;24.96;48.92
43312;BME280;30041;48.300;16.352;2022-08-18T06:13:55;99210.47;;;25.14;48.12
43312;BME280;30041;48.300;16.352;2022-08-18T06:16:36;99219.97;;;25.27;47.98
43312;BME280;30041;48.300;16.352;2022-08-18T06:19:28;99210.72;;;25.38;47.60
43312;BME280;30041;48.300;16.352;2022-08-18T06:22:24;99218.31;;;25.46;47.28
43312;BME280;30041;48.300;16.352;2022-08-18T06:25:06;99226.44;;;25.52;47.31
43312;BME280;30041;48.300;16.352;2022-08-18T06:30:40;99235.13;;;25.59;47.02
43312;BME280;30041;48.300;16.352;2022-08-18T06:41:50;99274.19;;;25.68;46.97
43312;BME280;30041;48.300;16.352;2022-08-18T06:44:31;99273.09;;;25.69;46.84
43312;BME280;30041;48.300;16.352;2022-08-18T06:49:35;99275.78;;;25.74;47.20
43312;BME280;30041;48.300;16.352;2022-08-18T06:52:38;99273.59;;;25.76;46.97
43312;BME280;30041;48.300;16.352;2022-08-18T06:55:10;99280.41;;;25.79;46.83
43312;BME280;30041;48.300;16.352;2022-08-18T06:58:03;99281.22;;;25.79;46.95
43312;BME280;30041;48.300;16.352;2022-08-18T07:00:33;99277.94;;;25.82;46.92
43312;BME280;30041;48.300;16.352;2022-08-18T07:03:10;99284.47;;;25.81;47.03
43312;BME280;30041;48.300;16.352;2022-08-18T07:06:08;99294.22;;;25.82;46.88
43312;BME280;30041;48.300;16.352;2022-08-18T07:08:35;99293.16;;;25.83;46.82
43312;BME280;30041;48.300;16.352;2022-08-18T07:11:23;99304.00;;;25.83;46.71
43312;BME280;30041;48.300;16.352;2022-08-18T07:14:11;99308.88;;;25.86;46.83
43312;BME280;30041;48.300;16.352;2022-08-18T07:16:38;99309.69;;;25.87;46.98
43312;BME280;30041;48.300;16.352;2022-08-18T07:19:17;99312.16;;;25.88;46.86
43312;BME280;30041;48.300;16.352;2022-08-18T07:22:06;99312.97;;;25.89;46.73
43312;BME280;30041;48.300;16.352;2022-08-18T07:24:47;99321.94;;;25.89;46.78
43312;BME280;30041;48.300;16.352;2022-08-18T07:27:22;99323.56;;;25.91;46.70
43312;BME280;30041;48.300;16.352;2022-08-18T07:30:11;99323.31;;;25.92;46.58
43312;BME280;30041;48.300;16.352;2022-08-18T07:33:16;99329.53;;;25.93;46.80
43312;BME280;30041;48.300;16.352;2022-08-18T07:36:00;99322.19;;;25.93;46.99
43312;BME280;30041;48.300;16.352;2022-08-18T07:41:22;99333.34;;;25.97;46.79
43312;BME280;30041;48.300;16.352;2022-08-18T07:46:34;99323.00;;;25.99;46.79
43312;BME280;30041;48.300;16.352;2022-08-18T07:49:01;99319.19;;;26.00;46.62
43312;BME280;30041;48.300;16.352;2022-08-18T07:51:46;99312.13;;;25.99;46.50
43312;BME280;30041;48.300;16.352;2022-08-18T07:54:23;99307.53;;;25.99;46.67
43312;BME280;30041;48.300;16.352;2022-08-18T07:57:01;99306.16;;;26.02;46.68
43312;BME280;30041;48.300;16.352;2022-08-18T08:11:40;99325.22;;;25.35;49.00
43312;BME280;30041;48.300;16.352;2022-08-18T08:17:02;99316.53;;;25.48;48.88
43312;BME280;30041;48.300;16.352;2022-08-18T08:22:45;99321.41;;;25.46;48.75
43312;BME280;30041;48.300;16.352;2022-08-18T08:29:02;99324.09;;;25.36;49.19
43312;BME280;30041;48.300;16.352;2022-08-18T08:37:14;99304.03;;;25.42;48.72
43312;BME280;30041;48.300;16.352;2022-08-18T08:39:52;99298.34;;;25.49;48.65
43312;BME280;30041;48.300;16.352;2022-08-18T08:42:36;99288.84;;;25.52;48.56
43312;BME280;30041;48.300;16.352;2022-08-18T08:45:08;99282.88;;;25.55;48.37
43312;BME280;30041;48.300;16.352;2022-08-18T08:47:41;99278.25;;;25.55;48.54
43312;BME280;30041;48.300;16.352;2022-08-18T08:50:33;99269.59;;;25.53;48.59
43312;BME280;30041;48.300;16.352;2022-08-18T08:53:10;99262.25;;;25.54;48.59
43312;BME280;30041;48.300;16.352;2022-08-18T08:55:52;99248.97;;;25.52;48.42
43312;BME280;30041;48.300;16.352;2022-08-18T08:58:39;99230.53;;;25.54;48.42
43312;BME280;30041;48.300;16.352;2022-08-18T09:01:40;99221.84;;;25.52;48.60
43312;BME280;30041;48.300;16.352;2022-08-18T09:16:25;99194.94;;;25.56;48.36
43312;BME280;30041;48.300;16.352;2022-08-18T09:21:42;99190.91;;;25.53;48.24
43312;BME280;30041;48.300;16.352;2022-08-18T09:24:45;99185.19;;;25.55;48.27
43312;BME280;30041;48.300;16.352;2022-08-18T09:30:03;99203.09;;;25.56;48.30
43312;BME280;30041;48.300;16.352;2022-08-18T09:32:41;99203.91;;;25.56;48.47
43312;BME280;30041;48.300;16.352;2022-08-18T09:35:36;99200.13;;;25.57;48.34
43312;BME280;30041;48.300;16.352;2022-08-18T09:38:24;99201.19;;;25.56;48.49
43312;BME280;30041;48.300;16.352;2022-08-18T09:40:53;99211.22;;;25.56;48.63
43312;BME280;30041;48.300;16.352;2022-08-18T09:43:51;99211.78;;;25.58;48.19
43312;BME280;30041;48.300;16.352;2022-08-18T09:51:52;99203.63;;;25.58;48.39
43312;BME280;30041;48.300;16.352;2022-08-18T09:54:25;99209.06;;;25.58;48.21
43312;BME280;30041;48.300;16.352;2022-08-18T10:04:48;99196.84;;;25.60;48.66
43312;BME280;30041;48.300;16.352;2022-08-18T10:07:38;99196.03;;;25.60;48.46
43312;BME280;30041;48.300;16.352;2022-08-18T10:13:20;99205.28;;;25.59;48.78
43312;BME280;30041;48.300;16.352;2022-08-18T10:24:16;99213.59;;;25.83;48.10
43312;BME280;30041;48.300;16.352;2022-08-18T10:34:40;99180.72;;;26.00;47.51
43312;BME280;30041;48.300;16.352;2022-08-18T10:40:04;99164.41;;;26.05;47.43
43312;BME280;30041;48.300;16.352;2022-08-18T10:45:43;99157.59;;;26.07;47.45
43312;BME280;30041;48.300;16.352;2022-08-18T10:48:29;99148.38;;;26.08;47.45
43312;BME280;30041;48.300;16.352;2022-08-18T10:56:32;99131.50;;;26.12;47.37
43312;BME280;30041;48.300;16.352;2022-08-18T10:59:19;99140.19;;;26.14;47.28
43312;BME280;30041;48.300;16.352;2022-08-18T11:02:00;99140.19;;;26.14;47.26
43312;BME280;30041;48.300;16.352;2022-08-18T11:04:42;99135.56;;;26.14;47.14
43312;BME280;30041;48.300;16.352;2022-08-18T11:07:14;99123.63;;;26.15;47.16
43312;BME280;30041;48.300;16.352;2022-08-18T11:09:42;99127.13;;;26.16;47.23
43312;BME280;30041;48.300;16.352;2022-08-18T11:12:11;99135.00;;;26.17;47.00
43312;BME280;30041;48.300;16.352;2022-08-18T11:19:57;99143.69;;;26.19;47.06
43312;BME280;30041;48.300;16.352;2022-08-18T11:22:32;99142.59;;;26.20;46.84
43312;BME280;30041;48.300;16.352;2022-08-18T11:25:02;99136.88;;;26.22;47.04
43312;BME280;30041;48.300;16.352;2022-08-18T11:27:39;99117.59;;;26.23;47.10
43312;BME280;30041;48.300;16.352;2022-08-18T11:30:09;99115.94;;;26.22;47.17
43312;BME280;30041;48.300;16.352;2022-08-18T11:32:37;99115.94;;;26.22;47.25
43312;BME280;30041;48.300;16.352;2022-08-18T11:35:13;99115.94;;;26.22;47.09
43312;BME280;30041;48.300;16.352;2022-08-18T11:37:55;99119.19;;;26.24;47.04
43312;BME280;30041;48.300;16.352;2022-08-18T11:40:30;99108.34;;;26.24;47.08
43312;BME280;30041;48.300;16.352;2022-08-18T11:43:00;99105.34;;;26.26;47.16
43312;BME280;30041;48.300;16.352;2022-08-18T11:45:58;99113.19;;;26.27;46.92
43312;BME280;30041;48.300;16.352;2022-08-18T11:51:02;99108.28;;;26.29;46.93
43312;BME280;30041;48.300;16.352;2022-08-18T11:56:21;99111.81;;;26.30;46.84
43312;BME280;30041;48.300;16.352;2022-08-18T11:59:04;99114.25;;;26.32;47.04
43312;BME280;30041;48.300;16.352;2022-08-18T12:07:12;99120.22;;;26.34;46.99
43312;BME280;30041;48.300;16.352;2022-08-18T12:09:42;99111.28;;;26.33;46.90
43312;BME280;30041;48.300;16.352;2022-08-18T12:12:18;99109.88;;;26.36;46.80
43312;BME280;30041;48.300;16.352;2022-08-18T12:14:57;99111.50;;;26.37;47.17
43312;BME280;30041;48.300;16.352;2022-08-18T12:17:29;99110.41;;;26.38;46.83
43312;BME280;30041;48.300;16.352;2022-08-18T12:19:56;99111.22;;;26.38;46.88
43312;BME280;30041;48.300;16.352;2022-08-18T12:22:32;99112.03;;;26.39;46.79
43312;BME280;30041;48.300;16.352;2022-08-18T12:25:05;99117.19;;;26.40;46.62
43312;BME280;30041;48.300;16.352;2022-08-18T12:27:37;99109.84;;;26.41;46.94
43312;BME280;30041;48.300;16.352;2022-08-18T12:30:10;99101.41;;;26.42;46.86
43312;BME280;30041;48.300;16.352;2022-08-18T12:32:41;99099.50;;;26.43;46.79
43312;BME280;30041;48.300;16.352;2022-08-18T12:35:08;99093.78;;;26.44;46.79
43312;BME280;30041;48.300;16.352;2022-08-18T12:37:41;99084.53;;;26.45;46.91
43312;BME280;30041;48.300;16.352;2022-08-18T12:40:10;99077.22;;;26.46;46.90
43312;BME280;30041;48.300;16.352;2022-08-18T12:42:39;99083.44;;;26.46;46.96
43312;BME280;30041;48.300;16.352;2022-08-18T12:45:05;99077.75;;;26.48;46.96
43312;BME280;30041;48.300;16.352;2022-08-18T12:47:31;99072.31;;;26.48;46.93
43312;BME280;30041;48.300;16.352;2022-08-18T12:50:06;99052.19;;;26.49;46.62
43312;BME280;30041;48.300;16.352;2022-08-18T12:52:35;99047.28;;;26.51;46.87
43312;BME280;30041;48.300;16.352;2022-08-18T12:55:04;99036.41;;;26.51;46.72
43312;BME280;30041;48.300;16.352;2022-08-18T12:57:36;99031.78;;;26.51;46.85
43312;BME280;30041;48.300;16.352;2022-08-18T13:00:06;99031.50;;;26.53;46.58
43312;BME280;30041;48.300;16.352;2022-08-18T13:02:37;99036.13;;;26.53;46.69
43312;BME280;30041;48.300;16.352;2022-08-18T13:05:06;99041.25;;;26.54;46.70
43312;BME280;30041;48.300;16.352;2022-08-18T13:07:35;99037.75;;;26.54;46.65
43312;BME280;30041;48.300;16.352;2022-08-18T13:10:01;99038.53;;;26.54;46.72
43312;BME280;30041;48.300;16.352;2022-08-18T13:12:29;99028.22;;;26.56;46.83
43312;BME280;30041;48.300;16.352;2022-08-18T13:14:57;99015.75;;;26.55;46.57
43312;BME280;30041;48.300;16.352;2022-08-18T13:17:26;99013.03;;;26.55;46.64
43312;BME280;30041;48.300;16.352;2022-08-18T13:19:52;99011.13;;;26.56;46.52
43312;BME280;30041;48.300;16.352;2022-08-18T13:22:20;99017.09;;;26.58;46.82
43312;BME280;30041;48.300;16.352;2022-08-18T13:24:48;99024.44;;;26.57;46.89
43312;BME280;30041;48.300;16.352;2022-08-18T13:27:18;99031.47;;;26.58;46.64
43312;BME280;30041;48.300;16.352;2022-08-18T13:29:44;99039.63;;;26.58;46.58
43312;BME280;30041;48.300;16.352;2022-08-18T13:32:10;99039.34;;;26.60;46.56
43312;BME280;30041;48.300;16.352;2022-08-18T13:34:38;99051.81;;;26.61;46.63
43312;BME280;30041;48.300;16.352;2022-08-18T13:37:13;99044.47;;;26.61;46.47
43312;BME280;30041;48.300;16.352;2022-08-18T13:39:41;99044.47;;;26.61;46.75
43312;BME280;30041;48.300;16.352;2022-08-18T13:42:13;99049.63;;;26.63;46.66
43312;BME280;30041;48.300;16.352;2022-08-18T13:44:44;99048.84;;;26.62;46.43
43312;BME280;30041;48.300;16.352;2022-08-18T13:47:09;99054.28;;;26.62;46.79
43312;BME280;30041;48.300;16.352;2022-08-18T13:49:37;99059.69;;;26.62;46.35
43312;BME280;30041;48.300;16.352;2022-08-18T13:52:06;99057.50;;;26.64;46.55
43312;BME280;30041;48.300;16.352;2022-08-18T13:54:43;99071.91;;;26.65;46.54
43312;BME280;30041;48.300;16.352;2022-08-18T13:57:09;99058.31;;;26.65;46.67
43312;BME280;30041;48.300;16.352;2022-08-18T13:59:37;99055.31;;;26.66;46.60
43312;BME280;30041;48.300;16.352;2022-08-18T14:02:09;99055.31;;;26.66;46.50
43312;BME280;30041;48.300;16.352;2022-08-18T14:04:38;99049.88;;;26.66;46.44
43312;BME280;30041;48.300;16.352;2022-08-18T14:07:05;99051.50;;;26.67;46.53
43312;BME280;30041;48.300;16.352;2022-08-18T14:09:31;99035.19;;;26.67;46.69
43312;BME280;30041;48.300;16.352;2022-08-18T14:12:02;99028.66;;;26.68;46.69
43312;BME280;30041;48.300;16.352;2022-08-18T14:14:31;99026.75;;;26.69;46.53
43312;BME280;30041;48.300;16.352;2022-08-18T14:17:04;99033.00;;;26.69;46.22
43312;BME280;30041;48.300;16.352;2022-08-18T14:19:35;99044.97;;;26.68;46.46
43312;BME280;30041;48.300;16.352;2022-08-18T14:22:07;99054.75;;;26.69;46.44
43312;BME280;30041;48.300;16.352;2022-08-18T14:24:41;99054.75;;;26.69;46.39
43312;BME280;30041;48.300;16.352;2022-08-18T14:27:09;99042.78;;;26.70;46.74
43312;BME280;30041;48.300;16.352;2022-08-18T14:29:37;99044.66;;;26.70;46.65
43312;BME280;30041;48.300;16.352;2022-08-18T14:32:04;99040.88;;;26.71;46.63
43312;BME280;30041;48.300;16.352;2022-08-18T14:34:30;99043.88;;;26.69;46.51
43312;BME280;30041;48.300;16.352;2022-08-18T14:36:59;99043.31;;;26.73;46.69
43312;BME280;30041;48.300;16.352;2022-08-18T14:39:28;99039.75;;;26.72;46.31
43312;BME280;30041;48.300;16.352;2022-08-18T14:41:54;99038.97;;;26.71;46.66
43312;BME280;30041;48.300;16.352;2022-08-18T14:44:20;99045.19;;;26.72;46.42
43312;BME280;30041;48.300;16.352;2022-08-18T14:46:48;99042.47;;;26.72;46.74
43312;BME280;30041;48.300;16.352;2022-08-18T14:49:14;99044.91;;;26.74;46.70
43312;BME280;30041;48.300;16.352;2022-08-18T14:51:40;99053.06;;;26.74;46.44
43312;BME280;30041;48.300;16.352;2022-08-18T14:54:06;99054.19;;;26.73;46.44
43312;BME280;30041;48.300;16.352;2022-08-18T14:56:32;99051.91;;;26.50;46.72
43312;BME280;30041;48.300;16.352;2022-08-18T14:58:58;99050.44;;;26.29;47.20
43312;BME280;30041;48.300;16.352;2022-08-18T15:01:24;99055.41;;;26.22;46.92
43312;BME280;30041;48.300;16.352;2022-08-18T15:03:53;99046.19;;;26.18;47.06
43312;BME280;30041;48.300;16.352;2022-08-18T15:06:18;99046.75;;;26.15;46.96
43312;BME280;30041;48.300;16.352;2022-08-18T15:08:44;99045.41;;;26.12;47.02
43312;BME280;30041;48.300;16.352;2022-08-18T15:11:10;99043.78;;;26.11;46.99
43312;BME280;30041;48.300;16.352;2022-08-18T15:13:43;99035.38;;;26.07;47.24
43312;BME280;30041;48.300;16.352;2022-08-18T15:16:15;99037.06;;;26.03;47.23
43312;BME280;30041;48.300;16.352;2022-08-18T15:18:48;99033.78;;;26.06;47.27
43312;BME280;30041;48.300;16.352;2022-08-18T15:21:16;99038.69;;;26.04;47.27
43312;BME280;30041;48.300;16.352;2022-08-18T15:23:48;99033.25;;;26.04;47.35
43312;BME280;30041;48.300;16.352;2022-08-18T15:26:19;99027.53;;;26.06;47.39
43312;BME280;30041;48.300;16.352;2022-08-18T15:28:49;99025.09;;;26.04;47.41